Terminal Aerodrome Forecast
Issued by NWS

Home | Current Version | Previous Version | Text Only | Print | Product List | Glossary On
Versions: 1 2 3 4 5 6 7 8 9 10 11 12 13 14 15 16 17 18
000
FTUS46 KMTR 301120
TAFMRY
TAF
KMRY 301120Z 3012/3112 00000KT 6SM BR OVC005
     FM301900 29005KT P6SM FEW008
     FM302000 25009KT P6SM SCT250
     FM310300 23005KT P6SM OVC007=

USA.gov is the U.S. government's official web portal to all federal, state and local government web resources and services.